Latest Weather Observations for Bundaberg

IDQ60801

Issued at 6:13 am EST Thursday 23 May 2024 (issued every 10 minutes, with the page automatically refreshed every 10 minutes)

About weather observations | Map of weather stations | Latest weather observations for QLD | Other Formats
Station Details ID: 039128 Name: BUNDABERG AERO Lat: -24.91 Lon: 152.32 Height: 30.82 m
Data from the previous 72 hours. | See also: Recent months at Bundaberg
Date/Time
EST
Temp
°C
App
Temp
°C
Dew
Point
°C
Rel
Hum
%
Delta-T
°C
Wind Press
QNH
hPa
Press
MSL
hPa
Rain since
9am
mm
Dir  Spd
km/h
Gust
km/h
Spd
kts
Gust
kts
23/06:00am 14.0 12.7 13.8 99 0.1 SSW 13 17 7 9 1022.1 1022.0 0.0
23/05:30am 14.0 12.7 13.8 99 0.1 S 13 17 7 9 1021.8 1021.7 0.0
23/05:00am 14.1 12.9 13.9 99 0.1 SSW 13 17 7 9 1021.5 1021.4 0.0
23/04:30am 14.2 13.4 14.0 99 0.1 SSW 11 15 6 8 1021.3 1021.2 0.0
23/04:00am 14.1 13.6 13.9 99 0.1 SSW 9 13 5 7 1021.3 1021.2 0.0
23/03:30am 14.1 13.3 13.9 99 0.1 S 11 13 6 7 1021.4 1021.3 0.0
23/03:00am 14.5 13.4 14.2 98 0.2 S 13 17 7 9 1021.4 1021.3 0.0
23/02:30am 14.4 13.2 13.9 97 0.3 SSW 13 17 7 9 1021.5 1021.4 0.0
23/02:00am 14.6 13.4 14.0 96 0.3 SSW 13 17 7 9 1021.6 1021.5 0.0
23/01:30am 14.8 13.7 14.2 96 0.3 S 13 19 7 10 1021.9 1021.8 0.0
23/01:00am 14.8 14.1 14.2 96 0.3 S 11 15 6 8 1021.9 1021.8 0.0
23/12:30am 15.2 14.6 14.7 97 0.3 SSW 11 15 6 8 1022.0 1021.9 0.0
23/12:00am 15.3 14.5 15.0 98 0.2 SSW 13 17 7 9 1022.1 1022.0 0.0
 
Date/Time
EST
Temp
°C
App
Temp
°C
Dew
Point
°C
Rel
Hum
%
Delta-T
°C
Wind Press
QNH
hPa
Press
MSL
hPa
Rain since
9am
mm
Dir  Spd
km/h
Gust
km/h
Spd
kts
Gust
kts
22/11:30pm 15.7 15.4 15.4 98 0.2 SSW 11 15 6 8 1022.3 1022.2 0.0
22/11:00pm 15.6 15.3 15.4 99 0.1 S 11 13 6 7 1022.5 1022.5 0.0
22/10:30pm 16.2 16.0 15.6 96 0.4 S 11 13 6 7 1022.6 1022.6 0.0
22/10:00pm 16.6 16.4 15.8 95 0.5 S 11 15 6 8 1022.6 1022.5 0.0
22/09:30pm 16.3 16.5 15.7 96 0.4 S 9 13 5 7 1022.8 1022.7 0.0
22/09:00pm 16.4 16.1 15.4 94 0.6 S 11 15 6 8 1022.7 1022.6 0.0
22/08:30pm 16.8 16.5 15.5 92 0.8 SSE 11 13 6 7 1022.6 1022.5 0.0
22/08:00pm 17.2 17.3 15.5 90 1.0 SSE 9 15 5 8 1022.5 1022.4 0.0
22/07:30pm 17.4 17.5 15.4 88 1.2 SSE 9 11 5 6 1022.4 1022.3 0.0
22/07:00pm 17.6 18.0 15.4 87 1.3 SSE 7 11 4 6 1022.0 1021.9 0.0
22/06:30pm 17.6 17.4 15.8 89 1.1 SE 11 13 6 7 1021.7 1021.6 0.0
22/06:00pm 17.6 17.4 15.6 88 1.2 SE 11 11 6 6 1021.2 1021.1 0.0
22/05:30pm 18.3 18.2 15.9 86 1.4 SE 11 13 6 7 1021.0 1020.9 0.0
22/05:00pm 19.9 18.8 16.3 80 2.2 SE 17 20 9 11 1020.7 1020.6 0.0
22/04:30pm 20.7 17.7 16.7 78 2.4 ESE 28 39 15 21 1020.3 1020.2 0.0
22/04:00pm 21.5 17.3 15.8 70 3.4 ESE 32 43 17 23 1020.0 1019.9 0.0
22/03:30pm 22.9 20.0 16.0 65 4.2 SE 26 32 14 17 1019.7 1019.6 0.0
22/03:00pm 22.3 20.2 16.1 68 3.7 ESE 22 28 12 15 1019.7 1019.6 0.0
22/02:30pm 22.0 19.6 16.5 71 3.3 SE 24 32 13 17 1019.8 1019.7 0.0
22/02:00pm 22.2 18.7 16.5 70 3.5 SE 30 37 16 20 1019.7 1019.6 0.0
22/01:30pm 22.3 18.9 15.9 67 3.9 SE 28 35 15 19 1019.7 1019.6 0.0
22/01:00pm 23.4 21.8 16.4 64 4.3 SSE 20 30 11 16 1020.0 1019.9 0.0
22/12:30pm 22.5 20.1 16.5 69 3.7 SE 24 30 13 16 1020.4 1020.3 0.0
22/12:00pm 23.2 21.3 16.7 67 4.0 SSE 22 30 12 16 1020.9 1020.8 0.0
22/11:30am 22.9 20.5 16.4 66 4.0 SE 24 33 13 18 1021.4 1021.3 0.0
22/11:00am 22.3 20.4 16.6 70 3.5 SE 22 32 12 17 1021.9 1021.8 0.0
22/10:30am 22.4 21.0 16.9 71 3.4 SSE 20 28 11 15 1022.1 1022.0 0.0
22/10:00am 20.8 19.0 16.0 74 2.9 SSE 20 28 11 15 1022.5 1022.4 0.0
22/09:30am 20.5 18.3 15.9 75 2.8 SSE 22 32 12 17 1022.6 1022.5 0.0
22/09:00am 19.2 16.8 15.3 78 2.3 SSE 22 32 12 17 1022.6 1022.5 0.0
22/08:30am 18.3 15.8 14.2 77 2.4 SSE 20 32 11 17 1022.3 1022.2 0.0
22/08:00am 17.2 15.7 14.1 82 1.8 SSE 15 24 8 13 1022.0 1021.9 0.0
22/07:30am 15.3 14.4 13.7 90 0.9 S 11 15 6 8 1021.7 1021.6 0.0
22/07:00am 14.1 12.9 12.8 92 0.7 S 11 17 6 9 1021.5 1021.4 0.0
22/06:30am 13.8 12.6 12.7 93 0.6 SSW 11 15 6 8 1021.3 1021.2 0.0
22/06:00am 13.7 12.5 12.8 94 0.5 SSW 11 15 6 8 1020.8 1020.7 0.0
22/05:30am 13.8 12.6 12.7 93 0.6 S 11 17 6 9 1020.6 1020.5 0.0
22/05:00am 14.1 12.5 12.8 92 0.7 SSW 13 19 7 10 1020.4 1020.3 0.0
22/04:30am 13.9 12.7 12.8 93 0.6 SSW 11 15 6 8 1020.5 1020.4 0.0
22/04:00am 13.9 12.7 12.8 93 0.6 SSW 11 15 6 8 1020.5 1020.4 0.0
22/03:30am 13.9 12.7 12.8 93 0.6 S 11 15 6 8 1020.4 1020.3 0.0
22/03:00am 14.1 13.0 13.0 93 0.6 S 11 15 6 8 1020.4 1020.3 0.0
22/02:30am 14.0 12.8 12.7 92 0.7 S 11 17 6 9 1020.4 1020.3 0.0
22/02:00am 14.1 12.5 12.8 92 0.7 S 13 17 7 9 1020.5 1020.4 0.0
22/01:30am 14.5 12.6 12.9 90 0.9 S 15 20 8 11 1020.8 1020.7 0.0
22/01:00am 14.6 13.5 13.0 90 0.9 SSW 11 15 6 8 1020.9 1020.8 0.0
22/12:30am 14.7 14.0 13.1 90 0.9 SSW 9 13 5 7 1021.1 1021.0 0.0
22/12:00am 15.0 14.3 13.2 89 1.0 SSW 9 15 5 8 1021.3 1021.2 0.0
 
Date/Time
EST
Temp
°C
App
Temp
°C
Dew
Point
°C
Rel
Hum
%
Delta-T
°C
Wind Press
QNH
hPa
Press
MSL
hPa
Rain since
9am
mm
Dir  Spd
km/h
Gust
km/h
Spd
kts
Gust
kts
21/11:30pm 15.2 14.8 14.1 93 0.6 SW 9 11 5 6 1021.6 1021.5 0.0
21/11:00pm 15.0 14.6 14.0 94 0.6 SW 9 11 5 6 1021.8 1021.7 0.0
21/10:30pm 14.5 14.0 13.9 96 0.3 SW 9 11 5 6 1022.0 1021.9 0.0
21/10:00pm 14.3 14.0 13.3 94 0.6 SW 7 9 4 5 1022.1 1022.0 0.0
21/09:30pm 15.3 15.3 14.2 93 0.6 SW 7 9 4 5 1022.1 1022.0 0.0
21/09:00pm 15.9 15.2 14.4 91 0.9 S 11 13 6 7 1022.0 1021.9 0.0
21/08:30pm 15.7 15.6 13.8 88 1.1 S 7 19 4 10 1021.9 1021.9 0.0
21/08:00pm 15.8 15.3 13.8 88 1.1 SSE 9 11 5 6 1021.7 1021.6 0.0
21/07:30pm 15.6 14.7 13.8 89 1.0 SSE 11 13 6 7 1021.6 1021.5 0.0
21/07:00pm 15.8 14.5 13.6 87 1.2 SE 13 15 7 8 1021.3 1021.2 0.0
21/06:30pm 16.6 15.0 13.9 84 1.5 SE 15 17 8 9 1020.8 1020.7 0.0
21/06:00pm 17.5 17.2 14.4 82 1.8 SE 9 11 5 6 1020.4 1020.3 0.0
21/05:30pm 18.6 17.6 14.7 78 2.3 ESE 13 17 7 9 1020.0 1019.9 0.0
21/05:00pm 20.0 19.5 14.8 72 3.0 ESE 11 13 6 7 1019.7 1019.6 0.0
21/04:30pm 21.2 20.1 14.4 65 4.0 ESE 13 17 7 9 1019.4 1019.3 0.0
21/04:00pm 22.9 21.9 14.7 60 4.8 E 13 19 7 10 1019.1 1019.0 0.0
21/03:30pm 23.2 22.2 14.5 58 5.1 ESE 13 19 7 10 1018.9 1018.8 0.0
21/03:00pm 23.4 21.6 13.3 53 5.8 SSE 15 22 8 12 1018.9 1018.8 0.0
21/02:30pm 23.6 23.1 13.8 54 5.7 SSE 9 19 5 10 1018.9 1018.8 0.0
21/02:00pm 23.6 22.7 12.6 50 6.3 SSE 9 19 5 10 1018.9 1018.8 0.0
21/01:30pm 23.2 21.1 12.5 51 6.1 S 15 22 8 12 1019.1 1019.0 0.0
21/01:00pm 23.2 20.7 12.2 50 6.2 SSE 17 26 9 14 1019.4 1019.3 0.0
21/12:30pm 23.1 20.6 12.4 51 6.1 SSE 17 26 9 14 1019.7 1019.6 0.0
21/12:00pm 23.4 21.7 13.6 54 5.7 SSE 15 24 8 13 1020.2 1020.1 0.0
21/11:30am 23.2 21.1 12.5 51 6.1 SSE 15 22 8 12 1020.6 1020.5 0.0
21/11:00am 22.1 18.8 10.9 49 6.2 SSE 19 30 10 16 1020.7 1020.6 0.0
21/10:30am 21.4 19.3 12.3 56 5.1 S 15 20 8 11 1021.0 1020.9 0.0
21/10:00am 20.3 17.7 12.0 59 4.6 SSE 17 22 9 12 1021.5 1021.4 0.0
21/09:30am 19.7 17.9 12.2 62 4.2 S 13 19 7 10 1021.7 1021.6 0.0
21/09:00am 18.2 16.0 12.0 67 3.4 S 15 19 8 10 1021.5 1021.4 0.0
21/08:30am 16.3 14.6 12.5 78 2.1 SSW 13 17 7 9 1021.5 1021.4 0.0
21/08:00am 14.6 13.0 11.6 82 1.6 SSW 11 15 6 8 1021.2 1021.1 0.0
21/07:30am 13.2 11.0 10.7 85 1.3 SW 13 17 7 9 1021.0 1020.9 0.0
21/07:00am 11.8 9.4 9.9 88 1.0 SW 13 15 7 8 1020.9 1020.8 0.0
21/06:30am 11.5 9.4 9.6 88 1.0 SSW 11 15 6 8 1020.5 1020.4 0.0
21/06:00am 11.5 9.4 9.9 90 0.8 SW 11 13 6 7 1020.3 1020.2 0.0
21/05:30am 11.4 9.8 10.1 92 0.7 SW 9 13 5 7 1020.2 1020.1 0.0
21/05:00am 12.3 10.4 10.5 89 0.9 SSW 11 15 6 8 1019.8 1019.7 0.0
21/04:30am 12.5 10.8 11.1 91 0.7 SSW 11 17 6 9 1019.6 1019.5 0.0
21/04:00am 12.5 10.7 10.7 89 0.9 SSW 11 13 6 7 1019.5 1019.4 0.0
21/03:30am 12.8 11.0 11.0 89 0.9 SSW 11 15 6 8 1019.6 1019.5 0.0
21/03:00am 13.1 11.4 11.3 89 0.9 SSW 11 17 6 9 1019.6 1019.5 0.0
21/02:30am 13.1 11.5 11.7 91 0.7 SSW 11 15 6 8 1019.7 1019.6 0.0
21/02:00am 13.2 11.7 11.8 91 0.7 SSW 11 15 6 8 1019.9 1019.8 0.0
21/01:30am 13.0 11.4 11.7 92 0.7 SSW 11 13 6 7 1020.1 1020.0 0.0
21/01:00am 13.1 11.9 11.7 91 0.7 SSW 9 13 5 7 1020.3 1020.2 0.0
21/12:30am 13.1 11.9 11.7 91 0.7 SSW 9 13 5 7 1020.5 1020.4 0.0
21/12:00am 13.5 12.0 11.9 90 0.9 SSW 11 15 6 8 1020.5 1020.4 0.0
 
Date/Time
EST
Temp
°C
App
Temp
°C
Dew
Point
°C
Rel
Hum
%
Delta-T
°C
Wind Press
QNH
hPa
Press
MSL
hPa
Rain since
9am
mm
Dir  Spd
km/h
Gust
km/h
Spd
kts
Gust
kts
20/11:30pm 13.7 12.3 12.3 91 0.8 SSW 11 15 6 8 1020.7 1020.6 0.0
20/11:00pm 14.1 12.6 13.0 93 0.6 SSW 13 15 7 8 1021.0 1020.9 0.0
20/10:30pm 14.6 13.8 13.0 90 0.9 S 9 11 5 6 1020.8 1020.7 0.0
20/10:00pm 14.2 13.0 12.9 92 0.7 SSW 11 11 6 6 1021.0 1020.9 0.0
20/09:30pm 15.4 15.0 13.1 86 1.3 S 7 11 4 6 1020.9 1020.8 0.0
20/09:00pm 15.9 15.3 13.6 86 1.3 S 9 11 5 6 1020.8 1020.7 0.0
20/08:30pm 15.2 14.9 13.2 88 1.1 S 7 11 4 6 1020.6 1020.5 0.0
20/08:00pm 15.2 14.7 12.7 85 1.4 SSE 7 7 4 4 1020.4 1020.3 0.0
20/07:30pm 15.7 16.5 12.6 82 1.7 CALM 0 0 0 0 1020.3 1020.2 0.0
20/07:00pm 16.5 16.2 12.7 78 2.1 S 6 7 3 4 1019.8 1019.7 0.0
20/06:30pm 16.9 17.4 12.8 77 2.3 SSW 2 7 1 4 1019.2 1019.1 0.0
20/06:00pm 17.8 17.4 12.9 73 2.7 WSW 7 11 4 6 1019.0 1018.9 0.0
20/05:30pm 18.0 17.2 12.9 72 2.9 E 9 11 5 6 1018.5 1018.4 0.0
20/05:00pm 20.3 19.6 13.3 64 4.0 E 9 13 5 7 1018.1 1018.0 0.0
20/04:30pm 22.4 21.4 13.5 57 5.2 ESE 11 13 6 7 1017.6 1017.5 0.0
20/04:00pm 23.2 21.8 12.2 50 6.2 SSE 11 19 6 10 1017.3 1017.2 0.0
20/03:30pm 23.5 22.3 11.5 47 6.7 SSE 9 15 5 8 1017.0 1016.9 0.0
20/03:00pm 24.0 22.5 12.0 47 6.8 SSE 11 19 6 10 1016.9 1016.8 0.0
20/02:30pm 23.9 22.5 12.2 48 6.7 S 11 19 6 10 1017.0 1016.9 0.0
20/02:00pm 23.5 21.9 11.5 47 6.7 S 11 19 6 10 1016.9 1016.8 0.0
20/01:30pm 23.4 21.7 11.1 46 6.9 SSE 11 17 6 9 1017.3 1017.2 0.0
20/01:00pm 23.4 21.5 11.8 48 6.5 SSE 13 20 7 11 1017.5 1017.4 0.0
20/12:30pm 22.9 20.1 11.3 48 6.5 SSE 17 24 9 13 1017.9 1017.8 0.0
20/12:00pm 22.9 20.8 12.5 52 5.9 S 15 22 8 12 1018.6 1018.5 0.0
20/11:30am 21.9 18.9 10.7 49 6.2 S 17 24 9 13 1019.0 1018.9 0.0
20/11:00am 21.6 18.3 11.0 51 5.8 SSW 19 30 10 16 1019.5 1019.4 0.0
20/10:30am 20.7 18.0 11.6 56 5.1 SSW 17 20 9 11 1019.7 1019.6 0.0
20/10:00am 19.8 17.4 11.3 58 4.7 S 15 20 8 11 1020.1 1020.0 0.0
20/09:30am 18.7 16.6 11.0 61 4.2 SSW 13 19 7 10 1020.1 1020.0 0.0
20/09:00am 17.1 14.4 10.5 65 3.5 SSW 15 22 8 12 1020.2 1020.1 0.0
20/08:30am 15.4 12.7 10.2 71 2.7 SSW 15 20 8 11 1020.1 1020.0 0.0
20/08:00am 13.5 10.8 9.0 74 2.3 SSW 13 19 7 10 1020.2 1020.1 0.0
20/07:30am 12.3 8.6 8.0 75 2.1 SSW 17 22 9 12 1019.9 1019.8 0.0
20/07:00am 11.3 8.3 7.6 78 1.8 SW 13 19 7 10 1019.8 1019.7 0.0
20/06:30am 10.8 7.3 7.3 79 1.7 SW 15 24 8 13 1019.7 1019.6 0.0

Other formats

Comma delimited format used in spreadsheet applications
http://www.bom.gov.au/fwo/IDQ60801/IDQ60801.94387.axf

JavaScript Object Notation format (JSON) in row-major order
http://www.bom.gov.au/fwo/IDQ60801/IDQ60801.94387.json

Data quality

Most of these data are generated automatically and are frequently updated. Quality checks on data are not normally performed. It is possible for incorrect values to appear. Refer to information at About Latest Weather Observations and please check the disclaimer before using these data.